Flugplatz Erfurt

Bericht für EDDE

vom 23.09. um 18:50 UTC

Wind 13 kt aus 340°

Sichtweite 8000 m

schwacher Regen

gering bewölkt in 300 ft

aufgebrochene Bewölkung in 1200 ft

Temperatur 8.0°C

Taupunkt 8.0°C

Luftfeuchtigkeit 100%

Luftdruck 1010 hPa

EDDE 231850Z 34013KT 8000 -RA FEW003 BKN012 08/08 Q1010 TEMPO 34015G25KT SCT012

Prognose für EDDE

vom 23.09. um 17:45 UTC

Zwischen 18:00 UTC und 19:00 UTC

Wind 15 kt aus 340° in Böen 25 kt

Sichtweite 2500 m

Regen

Sprühregen

feuchter Dunst

bedeckt in 400 ft


Zwischen 19:00 und 23:00 UTC übergehend zu

Wind 15 kt aus 340° in Böen 25 kt

Sichtweite 8000 m

keine signifikanten Wettererscheinungen

aufgebrochene Bewölkung in 1500 ft


Zwischen 22:00 und 02:00 UTC übergehend zu

Wind 13 kt aus 280°

Sichtweite 8000 m

keine signifikanten Wettererscheinungen

aufgebrochene Bewölkung in 1500 ft


Am 24.09. zwischen 02:00 und 06:00 UTC übergehend zu

Wind 15 kt aus 270° in Böen 25 kt

Sichtweite 8000 m

keine signifikanten Wettererscheinungen

aufgebrochene Bewölkung in 1500 ft


Am 24.09. zwischen 09:00 UTC und 15:00 UTC zeitweise

Wind 20 kt aus 300° in Böen 35 kt

TAF COR EDDE 231745Z 2318/2418 34015G25KT 2500 RADZ BR OVC004 BECMG 2319/2323 8000 NSW BKN015 BECMG 2322/2402 28013KT BECMG 2402/2406 27015G25KT TEMPO 2409/2415 30020G35KT
Impressum